Latest Weather Observations for Horn Island

IDQ60801

Issued at 3:52 am EST Sunday 19 September 2021 (issued every 10 minutes, with the page automatically refreshed every 10 minutes)

About weather observations | Map of weather stations | Latest weather observations for QLD | Other Formats
Station Details ID: 027058 Name: HORN ISLAND Lat: -10.58 Lon: 142.29 Height: 4.0 m
Data from the previous 72 hours. | See also: Recent months at Horn Island
Date/Time
EST
Temp
°C
App
Temp
°C
Dew
Point
°C
Rel
Hum
%
Delta-T
°C
Wind Press
QNH
hPa
Press
MSL
hPa
Rain since
9am
mm
Dir  Spd
km/h
Gust
km/h
Spd
kts
Gust
kts
19/03:30am 24.7 23.7 18.9 70 3.7 SE 22 33 12 18 1012.9 1012.9 0.0
19/03:00am 24.9 23.9 18.8 69 3.9 SE 22 37 12 20 1013.0 1013.0 0.0
19/02:30am 24.9 24.4 19.1 70 3.7 SE 20 30 11 16 1013.4 1013.4 0.0
19/02:00am 24.9 23.1 18.8 69 3.9 SE 26 39 14 21 1013.8 1013.8 0.0
19/01:30am 25.0 22.9 18.9 69 3.9 SE 28 39 15 21 1014.2 1014.2 0.0
19/01:18am 25.1 22.8 18.5 67 4.2 SE 28 46 15 25 1014.4 1014.4 0.0
19/01:00am 25.4 23.8 18.3 65 4.5 SE 24 43 13 23 1014.4 1014.4 0.0
19/12:30am 25.2 23.6 18.4 66 4.3 SE 24 33 13 18 1014.5 1014.5 0.0
19/12:00am 25.2 22.8 18.2 65 4.4 SE 28 43 15 23 1014.9 1014.9 0.0
 
Date/Time
EST
Temp
°C
App
Temp
°C
Dew
Point
°C
Rel
Hum
%
Delta-T
°C
Wind Press
QNH
hPa
Press
MSL
hPa
Rain since
9am
mm
Dir  Spd
km/h
Gust
km/h
Spd
kts
Gust
kts
18/11:30pm 25.2 24.7 19.1 69 3.9 SE 20 32 11 17 1015.0 1015.0 0.0
18/11:00pm 24.9 23.9 19.7 73 3.4 SE 24 32 13 17 1014.9 1014.9 0.0
18/10:39pm 24.6 22.9 19.9 75 3.0 SE 28 48 15 26 1015.1 1015.1 0.0
18/10:30pm 24.5 23.3 20.0 76 2.9 SSE 26 39 14 21 1015.1 1015.1 0.0
18/10:00pm 24.8 23.2 20.1 75 3.0 SE 28 37 15 20 1015.1 1015.1 0.0
18/09:30pm 25.0 23.5 20.3 75 3.1 SE 28 43 15 23 1015.0 1015.0 0.0
18/09:00pm 25.4 24.7 19.5 70 3.8 SE 22 35 12 19 1014.5 1014.5 0.0
18/08:30pm 25.7 24.5 19.3 67 4.1 SSE 24 37 13 20 1014.0 1014.0 0.0
18/08:00pm 25.7 23.0 19.3 67 4.1 SE 32 44 17 24 1013.6 1013.6 0.0
18/07:30pm 25.7 23.8 19.3 67 4.1 SE 28 44 15 24 1013.2 1013.2 0.0
18/07:00pm 25.6 23.3 19.3 68 4.0 SE 30 41 16 22 1012.9 1012.9 0.0
18/06:30pm 25.8 23.4 19.0 66 4.4 SE 30 44 16 24 1012.6 1012.6 0.0
18/06:00pm 26.3 23.4 19.2 65 4.6 SE 33 48 18 26 1012.3 1012.3 0.0
18/05:30pm 26.8 24.0 19.4 64 4.8 SE 33 46 18 25 1011.8 1011.8 0.0
18/05:18pm 26.9 23.5 19.0 62 5.1 SE 35 54 19 29 1011.8 1011.8 0.0
18/05:00pm 27.4 24.1 19.2 61 5.3 SE 35 50 19 27 1011.6 1011.6 0.0
18/04:30pm 27.4 24.3 19.7 63 5.0 ESE 35 50 19 27 1011.6 1011.6 0.0
18/04:14pm 27.3 23.2 19.1 61 5.3 ESE 39 57 21 31 1011.7 1011.7 0.0
18/04:00pm 27.6 22.6 18.0 55 6.1 ESE 41 52 22 28 1011.6 1011.6 0.0
18/03:30pm 28.9 24.7 18.1 52 6.9 ESE 37 50 20 27 1011.6 1011.6 0.0
18/03:02pm 28.4 24.0 17.6 52 6.8 SE 37 59 20 32 1011.9 1011.9 0.0
18/03:00pm 29.0 25.3 18.4 52 6.8 ESE 35 48 19 26 1011.9 1011.9 0.0
18/02:30pm 29.5 25.8 18.3 51 7.2 ESE 35 52 19 28 1012.2 1012.2 0.0
18/02:14pm 30.4 26.4 18.5 49 7.7 ESE 37 56 20 30 1012.4 1012.4 0.0
18/02:00pm 29.4 25.0 17.6 49 7.5 ESE 37 50 20 27 1012.5 1012.5 0.0
18/01:30pm 30.3 26.9 19.0 50 7.3 ESE 35 50 19 27 1012.9 1012.9 0.0
18/01:13pm 29.0 25.0 17.5 49 7.3 ESE 35 54 19 29 1013.0 1013.0 0.0
18/01:00pm 29.2 24.5 17.7 50 7.3 ESE 39 50 21 27 1013.2 1013.2 0.0
18/12:30pm 29.1 25.6 17.9 50 7.1 ESE 33 48 18 26 1013.6 1013.6 0.0
18/12:00pm 29.2 25.0 18.9 53 6.7 ESE 39 48 21 26 1013.9 1013.9 0.0
18/11:30am 29.6 25.9 18.4 51 7.2 ESE 35 50 19 27 1014.2 1014.2 0.0
18/11:11am 28.7 25.5 18.2 53 6.7 ESE 32 50 17 27 1014.5 1014.5 0.0
18/11:00am 28.1 24.3 18.2 55 6.3 ESE 35 48 19 26 1014.7 1014.7 0.0
18/10:50am 28.0 25.2 19.0 58 5.8 ESE 32 50 17 27 1014.9 1014.9 0.0
18/10:30am 27.3 24.9 19.1 61 5.3 ESE 30 43 16 23 1015.0 1015.0 0.0
18/10:11am 26.7 22.4 18.6 61 5.2 ESE 39 57 21 31 1015.1 1015.1 0.0
18/10:00am 27.8 23.0 19.3 60 5.5 ESE 43 56 23 30 1014.9 1014.9 0.0
18/09:30am 28.2 24.2 17.7 53 6.6 ESE 35 52 19 28 1014.8 1014.8 0.0
18/09:00am 27.7 23.9 16.6 50 6.9 ESE 32 44 17 24 1014.8 1014.8 0.0
18/08:30am 26.4 22.7 17.5 58 5.6 ESE 33 48 18 26 1014.6 1014.6 0.0
18/08:00am 25.7 22.6 17.4 60 5.2 ESE 30 50 16 27 1014.4 1014.4 0.0
18/07:30am 26.2 22.8 17.8 60 5.3 ESE 32 46 17 25 1014.0 1014.0 0.0
18/07:00am 25.5 21.0 16.4 57 5.6 ESE 35 48 19 26 1013.6 1013.6 0.0
18/06:30am 25.2 21.7 17.9 64 4.6 ESE 33 50 18 27 1013.2 1013.2 0.0
18/06:00am 25.3 21.6 17.5 62 4.9 ESE 33 43 18 23 1012.5 1012.5 0.0
18/05:30am 25.2 21.5 17.4 62 4.9 ESE 33 46 18 25 1012.1 1012.1 0.0
18/05:00am 25.1 22.0 17.6 63 4.7 ESE 30 43 16 23 1011.8 1011.8 0.0
18/04:30am 25.1 21.5 17.3 62 4.9 ESE 32 50 17 27 1011.5 1011.5 0.0
18/04:29am 25.1 21.5 17.3 62 4.9 ESE 32 50 17 27 1011.5 1011.5 0.0
18/04:00am 25.2 21.6 17.1 60 5.0 ESE 32 43 17 23 1011.5 1011.5 0.0
18/03:30am 25.2 22.3 17.9 64 4.6 ESE 30 48 16 26 1011.6 1011.6 0.0
18/03:00am 25.3 21.8 17.5 62 4.9 ESE 32 52 17 28 1011.8 1011.8 0.0
18/02:55am 25.2 22.6 17.7 63 4.7 ESE 28 46 15 25 1011.9 1011.9 0.0
18/02:30am 25.4 20.5 16.3 57 5.6 ESE 37 52 20 28 1012.1 1012.1 0.0
18/02:00am 25.5 21.7 16.6 58 5.5 ESE 32 46 17 25 1012.3 1012.3 0.0
18/01:37am 25.3 21.7 17.2 61 5.0 ESE 32 50 17 27 1012.5 1012.5 0.0
18/01:30am 25.4 21.1 17.8 62 4.8 ESE 37 54 20 29 1012.5 1012.5 0.0
18/01:02am 25.5 23.1 19.2 68 4.0 ESE 30 48 16 26 1012.9 1012.9 0.0
18/01:00am 25.5 22.8 19.2 68 4.0 ESE 32 48 17 26 1012.9 1012.9 0.0
18/12:30am 25.6 22.3 18.3 64 4.6 ESE 33 46 18 25 1013.4 1013.4 0.0
18/12:00am 25.5 22.3 18.7 66 4.3 ESE 33 46 18 25 1013.8 1013.8 0.0
 
Date/Time
EST
Temp
°C
App
Temp
°C
Dew
Point
°C
Rel
Hum
%
Delta-T
°C
Wind Press
QNH
hPa
Press
MSL
hPa
Rain since
9am
mm
Dir  Spd
km/h
Gust
km/h
Spd
kts
Gust
kts
17/11:30pm 25.7 21.9 18.1 63 4.8 ESE 35 46 19 25 1013.9 1013.9 0.0
17/11:06pm 25.6 22.5 18.3 64 4.6 ESE 32 50 17 27 1014.0 1014.0 0.0
17/11:00pm 25.7 21.9 18.1 63 4.8 ESE 35 50 19 27 1014.0 1014.0 0.0
17/10:34pm 25.6 22.4 18.5 65 4.5 ESE 33 52 18 28 1014.0 1014.0 0.0
17/10:30pm 25.6 21.9 18.3 64 4.6 ESE 35 50 19 27 1013.9 1013.9 0.0
17/10:00pm 25.7 22.5 18.6 65 4.5 ESE 33 52 18 28 1013.9 1013.9 0.0
17/09:30pm 25.8 21.3 18.2 63 4.8 ESE 39 59 21 32 1013.8 1013.8 0.0
17/09:01pm 25.9 21.3 18.1 62 4.9 ESE 39 57 21 31 1013.6 1013.6 0.0
17/09:00pm 25.9 21.0 18.1 62 4.9 ESE 41 57 22 31 1013.6 1013.6 0.0
17/08:36pm 25.9 22.8 18.8 65 4.5 ESE 33 56 18 30 1013.3 1013.3 0.0
17/08:30pm 25.8 22.3 18.7 65 4.5 ESE 35 46 19 25 1013.2 1013.2 0.0
17/08:00pm 25.8 22.0 19.0 66 4.4 ESE 37 52 20 28 1012.8 1012.8 0.0
17/07:30pm 25.7 22.3 18.9 66 4.3 SE 35 46 19 25 1012.4 1012.4 0.0
17/07:00pm 25.8 21.9 18.7 65 4.5 SE 37 56 20 30 1012.1 1012.1 0.0
17/06:32pm 26.1 22.2 18.8 64 4.7 SE 37 57 20 31 1011.6 1011.6 0.0
17/06:30pm 26.2 22.4 18.9 64 4.7 SE 37 50 20 27 1011.7 1011.7 0.0
17/06:11pm 26.3 23.0 19.2 65 4.6 SE 35 56 19 30 1011.5 1011.5 0.0
17/06:00pm 26.5 23.3 19.4 65 4.6 ESE 35 52 19 28 1011.4 1011.4 0.0
17/05:40pm 26.8 23.5 18.4 60 5.3 ESE 33 52 18 28 1011.4 1011.4 0.0
17/05:30pm 27.1 23.2 18.7 60 5.4 ESE 37 54 20 29 1011.4 1011.4 0.0
17/05:00pm 27.6 22.6 18.0 55 6.1 ESE 41 59 22 32 1011.3 1011.3 0.0
17/04:32pm 27.6 23.6 18.6 58 5.8 ESE 37 57 20 31 1011.4 1011.4 0.0
17/04:30pm 27.9 24.1 18.9 58 5.8 ESE 37 54 20 29 1011.4 1011.4 0.0
17/04:02pm 28.4 25.0 19.1 57 6.0 ESE 35 54 19 29 1011.3 1011.3 0.0
17/04:00pm 28.6 25.7 19.2 56 6.1 ESE 33 48 18 26 1011.3 1011.3 0.0
17/03:30pm 28.7 23.9 18.5 54 6.5 ESE 41 54 22 29 1011.4 1011.4 0.0
17/03:18pm 29.3 25.3 19.3 55 6.5 ESE 39 57 21 31 1011.5 1011.5 0.0
17/03:00pm 28.6 24.8 19.0 56 6.2 ESE 37 50 20 27 1011.6 1011.6 0.0
17/02:41pm 29.0 24.3 18.7 53 6.6 ESE 41 59 22 32 1011.9 1011.9 0.0
17/02:30pm 29.2 23.7 18.0 51 7.1 ESE 44 57 24 31 1012.1 1012.1 0.0
17/02:00pm 29.0 23.9 17.8 50 7.1 ESE 41 52 22 28 1012.2 1012.2 0.0
17/01:30pm 28.7 24.3 18.5 54 6.5 ESE 39 54 21 29 1012.4 1012.4 0.0
17/01:00pm 29.9 25.4 19.0 52 7.1 ESE 41 57 22 31 1012.8 1012.8 0.0
17/12:44pm 28.9 23.6 18.1 52 6.9 ESE 43 61 23 33 1013.0 1013.0 0.0
17/12:30pm 28.4 23.3 18.5 55 6.3 ESE 43 57 23 31 1013.3 1013.3 0.0
17/12:00pm 29.2 24.9 17.7 50 7.3 ESE 37 57 20 31 1013.8 1013.8 0.0
17/11:39am 28.2 23.1 16.8 50 7.1 ESE 39 63 21 34 1014.1 1014.1 0.0
17/11:30am 28.3 23.5 19.2 57 5.9 ESE 43 56 23 30 1014.2 1014.2 0.0
17/11:00am 29.2 23.8 18.3 51 7.0 ESE 44 59 24 32 1014.6 1014.6 0.0
17/10:32am 28.7 24.5 18.8 55 6.4 ESE 39 57 21 31 1014.7 1014.7 0.0
17/10:30am 27.9 22.9 18.0 55 6.3 ESE 41 57 22 31 1014.8 1014.8 0.0
17/10:21am 28.1 24.2 18.8 57 6.0 ESE 37 57 20 31 1014.8 1014.8 0.0
17/10:00am 28.1 23.6 18.2 55 6.3 ESE 39 52 21 28 1014.6 1014.6 0.0
17/09:35am 27.9 23.4 18.3 56 6.1 ESE 39 57 21 31 1014.6 1014.6 0.0
17/09:30am 27.7 22.9 18.4 57 5.9 ESE 41 57 22 31 1014.7 1014.7 0.0
17/09:03am 27.4 23.7 19.2 61 5.3 ESE 37 56 20 30 1014.6 1014.6 0.0
17/09:00am 26.9 23.3 19.3 63 4.9 ESE 37 52 20 28 1014.6 1014.6 0.0
17/08:30am 27.0 23.7 18.3 59 5.5 ESE 33 46 18 25 1014.3 1014.3 0.0
17/08:00am 26.7 22.4 17.8 58 5.6 ESE 37 56 20 30 1013.9 1013.9 0.0
17/07:57am 26.4 21.8 17.2 57 5.7 ESE 37 56 20 30 1013.9 1013.9 0.0
17/07:30am 26.0 22.6 18.2 62 4.9 ESE 33 46 18 25 1013.2 1013.2 0.0
17/07:00am 25.3 21.7 18.5 66 4.3 ESE 35 48 19 26 1012.9 1012.9 0.0
17/06:43am 25.1 21.9 18.5 67 4.2 ESE 33 54 18 29 1012.7 1012.7 0.0
17/06:30am 25.2 21.8 18.9 68 4.0 ESE 35 46 19 25 1012.6 1012.6 0.0
17/06:00am 25.1 22.4 19.2 70 3.8 ESE 32 46 17 25 1012.2 1012.2 0.0
17/05:30am 25.3 22.9 19.0 68 4.0 ESE 30 43 16 23 1011.8 1011.8 0.0
17/05:00am 25.2 21.3 17.9 64 4.6 ESE 35 44 19 24 1011.7 1011.7 0.0
17/04:30am 25.1 21.6 17.8 64 4.6 ESE 33 46 18 25 1011.6 1011.6 0.0
17/04:00am 25.1 21.8 18.3 66 4.3 ESE 33 50 18 27 1011.9 1011.9 0.0
17/03:30am 25.2 23.0 18.6 67 4.2 ESE 28 43 15 23 1011.8 1011.8 0.0
17/03:00am 25.4 21.6 18.1 64 4.6 ESE 35 52 19 28 1011.8 1011.8 0.0
17/02:38am 25.2 23.0 18.6 67 4.2 ESE 28 46 15 25 1012.2 1012.2 0.0
17/02:30am 25.2 22.5 18.4 66 4.3 ESE 30 44 16 24 1012.4 1012.4 0.0
17/02:00am 25.2 22.9 18.4 66 4.3 ESE 28 41 15 22 1012.8 1012.8 0.0
17/01:36am 25.3 22.3 17.7 62 4.8 ESE 30 48 16 26 1013.0 1013.0 0.0
17/01:30am 25.2 22.5 18.4 66 4.3 ESE 30 41 16 22 1013.0 1013.0 0.0
17/01:00am 25.2 22.0 18.2 65 4.4 ESE 32 43 17 23 1013.4 1013.4 0.0
17/12:30am 25.2 22.0 18.2 65 4.4 ESE 32 44 17 24 1013.8 1013.8 0.0
17/12:00am 25.4 22.4 18.6 66 4.3 ESE 32 43 17 23 1014.0 1014.0 0.0
 
Date/Time
EST
Temp
°C
App
Temp
°C
Dew
Point
°C
Rel
Hum
%
Delta-T
°C
Wind Press
QNH
hPa
Press
MSL
hPa
Rain since
9am
mm
Dir  Spd
km/h
Gust
km/h
Spd
kts
Gust
kts
16/11:30pm 25.4 22.6 18.3 65 4.5 ESE 30 39 16 21 1014.2 1014.2 0.0
16/11:00pm 25.4 22.8 18.6 66 4.3 ESE 30 41 16 22 1014.3 1014.3 0.0
16/10:30pm 25.5 23.0 18.9 67 4.2 ESE 30 44 16 24 1014.1 1014.1 0.0
16/10:00pm 25.4 22.3 18.3 65 4.5 ESE 32 44 17 24 1014.0 1014.0 0.0
16/09:30pm 25.3 22.9 18.2 64 4.5 ESE 28 43 15 23 1013.6 1013.6 0.0
16/09:08pm 25.3 22.5 18.2 64 4.5 SE 30 48 16 26 1013.4 1013.4 0.0
16/09:00pm 25.5 22.1 18.2 64 4.6 SE 33 48 18 26 1013.3 1013.3 0.0
16/08:30pm 25.4 22.6 18.3 65 4.5 SE 30 43 16 23 1013.0 1013.0 0.0
16/08:21pm 25.4 23.2 18.6 66 4.3 SE 28 46 15 25 1012.9 1012.9 0.0
16/08:00pm 25.4 22.4 18.6 66 4.3 SE 32 46 17 25 1012.7 1012.7 0.0
16/07:30pm 25.4 23.5 18.6 66 4.3 SE 26 39 14 21 1012.2 1012.2 0.0
16/07:00pm 25.6 23.1 18.8 66 4.3 ESE 30 44 16 24 1012.0 1012.0 0.0
16/06:35pm 25.8 22.2 18.5 64 4.6 ESE 35 56 19 30 1011.6 1011.6 0.0
16/06:30pm 25.8 22.6 18.7 65 4.5 ESE 33 46 18 25 1011.6 1011.6 0.0
16/06:00pm 26.3 22.3 17.6 58 5.5 ESE 35 52 19 28 1011.5 1011.5 0.0
16/05:30pm 26.9 23.1 18.2 59 5.5 SE 35 52 19 28 1011.2 1011.2 0.0
16/05:00pm 27.8 23.4 17.6 53 6.4 ESE 37 50 20 27 1010.8 1010.8 0.0
16/04:30pm 28.1 23.8 17.9 54 6.5 ESE 37 52 20 28 1010.7 1010.7 0.0
16/04:08pm 28.3 23.5 17.5 52 6.8 ESE 39 57 21 31 1010.7 1010.7 0.0
16/04:00pm 29.0 25.1 18.7 53 6.6 ESE 37 54 20 29 1010.7 1010.7 0.0
16/03:34pm 28.6 24.4 18.1 53 6.7 ESE 37 57 20 31 1010.7 1010.7 0.0
16/03:30pm 28.9 24.3 18.1 52 6.9 ESE 39 54 21 29 1010.8 1010.8 0.0
16/03:00pm 29.2 25.7 19.5 56 6.3 ESE 37 48 20 26 1011.3 1011.3 0.0
16/02:30pm 28.9 24.3 18.9 54 6.5 ESE 41 56 22 30 1011.6 1011.6 0.0
16/02:00pm 28.6 24.5 19.2 56 6.1 ESE 39 54 21 29 1011.8 1011.8 0.0
16/01:49pm 28.3 24.1 19.0 57 6.0 ESE 39 57 21 31 1011.9 1011.9 0.0
16/01:30pm 28.5 23.9 18.9 56 6.2 ESE 41 54 22 29 1012.3 1012.3 0.0
16/01:00pm 28.7 25.0 19.9 59 5.8 ESE 39 52 21 28 1012.5 1012.5 0.0
16/12:30pm 29.4 25.0 19.4 55 6.5 ESE 41 57 22 31 1012.9 1012.9 0.0
16/12:11pm 29.5 25.4 19.2 54 6.7 ESE 39 57 21 31 1013.1 1013.1 0.0
16/12:00pm 29.1 25.1 19.4 55 6.3 ESE 39 56 21 30 1013.4 1013.4 0.0
16/11:30am 28.8 24.4 19.4 56 6.1 ESE 41 54 22 29 1013.8 1013.8 0.0
16/11:00am 28.5 23.7 18.3 54 6.5 ESE 41 61 22 33 1014.4 1014.4 0.0
16/10:50am 28.2 23.5 18.6 56 6.2 ESE 41 61 22 33 1014.5 1014.5 0.0
16/10:30am 28.0 23.7 18.7 57 6.0 ESE 39 54 21 29 1014.7 1014.7 0.0
16/10:00am 28.0 23.7 18.7 57 6.0 ESE 39 54 21 29 1014.8 1014.8 0.0
16/09:30am 27.7 23.5 19.0 59 5.6 ESE 39 54 21 29 1014.7 1014.7 0.0
16/09:00am 27.8 25.1 19.6 61 5.3 ESE 33 48 18 26 1014.7 1014.7 0.0
16/08:30am 26.6 23.9 19.2 64 4.8 ESE 32 44 17 24 1014.4 1014.4 0.0
16/08:18am 27.1 24.6 18.9 61 5.3 ESE 30 50 16 27 1014.3 1014.3 0.0
16/08:00am 26.5 23.5 18.6 62 5.0 ESE 32 44 17 24 1013.9 1013.9 0.0
16/07:30am 26.2 24.1 19.8 68 4.2 ESE 30 41 16 22 1013.6 1013.6 0.0
16/07:04am 25.8 23.0 19.4 67 4.1 ESE 33 52 18 28 1013.2 1013.2 0.0
16/07:00am 25.8 23.1 19.7 69 3.9 ESE 33 44 18 24 1013.1 1013.1 0.0
16/06:38am 25.6 22.9 19.3 68 4.0 ESE 32 50 17 27 1012.8 1012.8 0.0
16/06:30am 25.5 22.8 19.2 68 4.0 ESE 32 43 17 23 1012.8 1012.8 0.0
16/06:00am 25.4 23.6 19.5 70 3.8 ESE 28 41 15 22 1012.5 1012.5 0.0
16/05:30am 25.4 22.7 19.3 69 3.9 ESE 32 43 17 23 1012.2 1012.2 0.0
16/05:00am 25.3 24.0 19.9 72 3.5 ESE 26 39 14 21 1012.0 1012.0 0.0
16/04:30am 25.4 23.4 20.0 72 3.5 ESE 30 41 16 22 1011.8 1011.8 0.0
16/04:00am 25.4 22.9 19.8 71 3.6 SE 32 41 17 22 1011.8 1011.8 0.0

Other formats

Comma delimited format used in spreadsheet applications
http://www.bom.gov.au/fwo/IDQ60801/IDQ60801.94174.axf

JavaScript Object Notation format (JSON) in row-major order
http://www.bom.gov.au/fwo/IDQ60801/IDQ60801.94174.json

Data quality

Most of these data are generated automatically and are frequently updated. Quality checks on data are not normally performed. It is possible for incorrect values to appear. Refer to information at About Latest Weather Observations and please check the disclaimer before using these data.